Time;durP1;ratioP1;P1;durP2;ratioP2;P2;SDS_P1;SDS_P2;PMS_P1;PMS_P2;Temp;Humidity;BMP_temperature;BMP_pressure;BME280_temperature;BME280_humidity;BME280_pressure;Samples;Min_cycle;Max_cycle;Signal;HPM_P1;HPM_P2
2022/02/15 00:00:23;;;;;;;12.00;2.70;;;7.20;80.80;;;;;;5091626;28;20043;-87
2022/02/15 00:02:50;;;;;;;13.02;3.10;;;7.10;80.90;;;;;;5090906;28;20520;-87
2022/02/15 00:05:17;;;;;;;11.15;2.63;;;7.20;80.90;;;;;;5112851;28;20052;-86
2022/02/15 00:07:45;;;;;;;7.65;2.30;;;7.10;81.00;;;;;;5112423;27;20051;-89
2022/02/15 00:10:14;;;;;;;7.47;2.28;;;7.20;81.00;;;;;;5073968;28;20083;-89
2022/02/15 00:12:45;;;;;;;10.60;2.95;;;7.20;81.00;;;;;;5101271;28;20039;-87
2022/02/15 00:15:12;;;;;;;12.10;2.72;;;7.20;81.00;;;;;;5090973;28;20047;-88
2022/02/15 00:17:40;;;;;;;10.60;2.70;;;7.20;81.00;;;;;;5092462;28;20440;-87
2022/02/15 00:20:10;;;;;;;12.70;2.63;;;7.20;81.00;;;;;;5112639;28;20070;-88
2022/02/15 00:22:39;;;;;;;11.70;2.33;;;7.20;81.00;;;;;;5108223;28;20048;-88
2022/02/15 00:25:07;;;;;;;7.43;2.40;;;7.20;81.00;;;;;;5092095;28;20054;-87
2022/02/15 00:27:36;;;;;;;9.93;2.20;;;7.20;81.00;;;;;;5110371;28;20055;-88
2022/02/15 00:30:03;;;;;;;10.70;2.63;;;7.30;81.00;;;;;;5110702;28;20070;-88
2022/02/15 00:32:31;;;;;;;10.23;2.15;;;7.30;80.90;;;;;;5093054;28;20054;-87
2022/02/15 00:34:58;;;;;;;8.90;2.53;;;7.30;80.90;;;;;;5094105;28;20043;-89
2022/02/15 00:37:26;;;;;;;8.45;2.10;;;7.20;80.80;;;;;;5108233;28;20048;-88
2022/02/15 00:39:53;;;;;;;9.07;2.40;;;7.30;80.80;;;;;;5113930;28;20044;-87
2022/02/15 00:42:20;;;;;;;8.07;2.13;;;7.20;80.70;;;;;;5114625;28;20051;-87
2022/02/15 00:44:47;;;;;;;7.95;2.45;;;7.20;80.70;;;;;;5080440;28;20052;-87
2022/02/15 00:47:15;;;;;;;6.35;2.00;;;7.20;80.60;;;;;;5116640;28;20524;-87
2022/02/15 00:49:42;;;;;;;10.73;2.22;;;7.20;80.60;;;;;;5105778;28;20418;-87
2022/02/15 00:52:10;;;;;;;8.82;2.53;;;7.20;80.60;;;;;;5092637;28;20118;-87
2022/02/15 00:54:37;;;;;;;4.07;1.80;;;7.20;80.50;;;;;;5092857;28;20154;-88
2022/02/15 00:57:04;;;;;;;8.05;1.73;;;7.20;80.50;;;;;;5094200;28;20048;-88
2022/02/15 00:59:31;;;;;;;10.45;2.55;;;7.20;80.40;;;;;;5094809;28;20044;-89
2022/02/15 01:01:58;;;;;;;5.90;1.75;;;7.20;80.40;;;;;;5093486;28;20059;-87
2022/02/15 01:04:25;;;;;;;6.03;1.73;;;7.20;80.40;;;;;;5121923;27;20047;-87
2022/02/15 01:06:52;;;;;;;6.93;1.73;;;7.10;80.30;;;;;;5093621;28;20047;-87
2022/02/15 01:09:19;;;;;;;9.82;2.22;;;7.10;80.30;;;;;;5093931;28;20040;-87
2022/02/15 01:11:46;;;;;;;8.02;2.05;;;7.10;80.40;;;;;;5093503;28;20418;-87
2022/02/15 01:14:14;;;;;;;9.02;2.10;;;7.00;80.30;;;;;;5077830;28;20043;-87
2022/02/15 01:16:41;;;;;;;7.45;1.88;;;7.00;80.30;;;;;;5093444;28;20052;-88
2022/02/15 01:19:08;;;;;;;6.65;1.85;;;7.00;80.30;;;;;;5091577;28;20040;-87
2022/02/15 01:21:35;;;;;;;9.13;1.92;;;7.00;80.30;;;;;;5091846;28;20418;-88
2022/02/15 01:24:02;;;;;;;7.60;1.90;;;7.00;80.30;;;;;;5093715;28;20055;-88
2022/02/15 01:26:29;;;;;;;10.63;2.38;;;7.00;80.30;;;;;;5093955;28;20063;-88
2022/02/15 01:28:56;;;;;;;6.88;1.95;;;7.00;80.30;;;;;;5093966;28;20048;-87
2022/02/15 01:31:23;;;;;;;7.20;1.95;;;7.00;80.30;;;;;;5096532;28;20464;-88
2022/02/15 01:33:51;;;;;;;11.40;2.00;;;6.90;80.30;;;;;;5094424;28;20047;-87
2022/02/15 01:36:19;;;;;;;8.02;2.10;;;7.00;80.30;;;;;;5091780;28;20044;-87
2022/02/15 01:38:46;;;;;;;5.95;2.00;;;6.90;80.20;;;;;;5092647;28;20707;-87
2022/02/15 01:41:13;;;;;;;6.57;2.05;;;6.90;80.30;;;;;;5077200;28;20051;-87
2022/02/15 01:43:42;;;;;;;5.38;1.80;;;7.00;80.20;;;;;;5093030;28;20055;-87
2022/02/15 01:46:10;;;;;;;7.65;1.55;;;6.90;80.20;;;;;;5091333;28;20055;-87
2022/02/15 01:48:39;;;;;;;9.35;2.10;;;6.90;80.20;;;;;;5091820;28;20532;-87
2022/02/15 01:51:07;;;;;;;4.30;1.40;;;6.90;80.20;;;;;;5112476;28;20075;-87
2022/02/15 01:53:34;;;;;;;10.15;1.92;;;6.90;80.20;;;;;;5095518;28;20067;-87
2022/02/15 01:56:01;;;;;;;5.68;1.63;;;6.90;80.20;;;;;;5095446;28;20417;-88
2022/02/15 01:58:28;;;;;;;5.65;1.80;;;6.90;80.20;;;;;;5107068;28;20052;-87
2022/02/15 02:00:55;;;;;;;9.25;1.95;;;6.90;80.10;;;;;;5112751;28;20035;-88
2022/02/15 02:03:22;;;;;;;8.13;1.80;;;6.90;80.10;;;;;;5111818;28;20177;-88
2022/02/15 02:05:50;;;;;;;6.85;1.77;;;6.80;80.10;;;;;;5095284;28;20051;-88
2022/02/15 02:08:18;;;;;;;5.57;1.80;;;6.90;80.10;;;;;;5096971;28;20055;-88
2022/02/15 02:10:46;;;;;;;6.40;1.80;;;6.80;80.10;;;;;;5111895;28;20039;-88
2022/02/15 02:13:13;;;;;;;7.50;1.92;;;6.80;80.00;;;;;;5111580;28;20040;-88
2022/02/15 02:15:43;;;;;;;6.35;1.73;;;6.80;80.00;;;;;;5112533;28;20055;-88
2022/02/15 02:18:11;;;;;;;10.85;2.25;;;6.70;79.90;;;;;;5111664;28;20062;-87
2022/02/15 02:20:39;;;;;;;5.85;1.38;;;6.70;79.90;;;;;;5095021;28;20083;-89
2022/02/15 02:23:11;;;;;;;6.78;1.50;;;6.70;79.90;;;;;;5115151;28;20051;-87
2022/02/15 02:25:38;;;;;;;8.00;2.08;;;6.70;79.80;;;;;;5094959;28;20058;-86
2022/02/15 02:28:05;;;;;;;5.18;1.60;;;6.70;79.80;;;;;;5112492;28;20436;-87
2022/02/15 02:30:32;;;;;;;5.10;1.65;;;6.70;79.80;;;;;;5110154;28;20054;-87
2022/02/15 02:32:59;;;;;;;8.48;1.55;;;6.70;79.80;;;;;;5128218;27;20044;-87
2022/02/15 02:35:26;;;;;;;7.07;1.77;;;6.60;79.70;;;;;;5113575;28;20047;-87
2022/02/15 02:37:53;;;;;;;10.85;1.70;;;6.60;79.70;;;;;;5107730;28;20429;-88
2022/02/15 02:40:20;;;;;;;7.30;1.67;;;6.50;79.70;;;;;;5093423;28;20044;-87
2022/02/15 02:42:47;;;;;;;6.47;1.70;;;6.50;79.70;;;;;;5112331;28;20432;-87
2022/02/15 02:45:20;;;;;;;5.68;1.55;;;6.50;79.70;;;;;;5111076;28;20047;-88
2022/02/15 02:47:49;;;;;;;10.18;1.80;;;6.50;79.70;;;;;;5076517;28;20048;-87
2022/02/15 02:50:19;;;;;;;5.97;1.60;;;6.40;79.70;;;;;;5109853;28;20044;-87
2022/02/15 02:52:46;;;;;;;5.22;1.77;;;6.40;79.70;;;;;;5094707;28;20054;-87
2022/02/15 02:55:13;;;;;;;6.13;1.45;;;6.40;79.60;;;;;;5114101;27;20055;-87
2022/02/15 02:57:41;;;;;;;7.47;1.95;;;6.40;79.70;;;;;;5112576;28;20070;-88
2022/02/15 03:00:11;;;;;;;10.02;1.70;;;6.40;79.60;;;;;;5111689;28;20513;-87
2022/02/15 03:02:39;;;;;;;5.97;1.70;;;6.40;79.70;;;;;;5111250;28;20445;-87
2022/02/15 03:05:06;;;;;;;6.47;1.60;;;6.40;79.60;;;;;;5125476;27;20058;-88
2022/02/15 03:07:34;;;;;;;5.50;1.60;;;6.30;79.60;;;;;;5093748;28;20521;-88
2022/02/15 03:10:02;;;;;;;7.18;1.67;;;6.30;79.60;;;;;;5092272;28;20509;-89
2022/02/15 03:12:28;;;;;;;11.35;1.83;;;6.30;79.60;;;;;;5092787;28;20047;-89
2022/02/15 03:14:57;;;;;;;7.10;1.67;;;6.30;79.60;;;;;;5111745;28;20039;-88
2022/02/15 03:17:25;;;;;;;8.18;1.35;;;6.30;79.60;;;;;;5113042;28;20054;-88
2022/02/15 03:19:52;;;;;;;8.38;1.83;;;6.20;79.60;;;;;;5111479;28;20104;-87
2022/02/15 03:22:20;;;;;;;7.72;1.80;;;6.20;79.60;;;;;;5094406;27;20044;-87
2022/02/15 03:24:47;;;;;;;7.70;1.60;;;6.20;79.60;;;;;;5120936;27;20536;-87
2022/02/15 03:27:14;;;;;;;9.38;2.33;;;6.20;79.60;;;;;;5111397;28;20525;-88
2022/02/15 03:29:41;;;;;;;10.15;1.77;;;6.20;79.50;;;;;;5111576;28;20423;-90
2022/02/15 03:32:08;;;;;;;5.05;1.40;;;6.10;79.50;;;;;;5094541;28;20051;-88
2022/02/15 03:34:35;;;;;;;5.07;1.48;;;6.10;79.50;;;;;;5111511;28;20055;-87
2022/02/15 03:37:02;;;;;;;6.43;1.60;;;6.10;79.50;;;;;;5111232;28;20040;-89
2022/02/15 03:39:29;;;;;;;7.95;1.63;;;6.10;79.50;;;;;;5093906;28;20051;-89
2022/02/15 03:44:41;;;;;;;7.78;1.73;;;6.00;79.50;;;;;;5110777;28;20424;-87
2022/02/15 03:47:09;;;;;;;4.85;1.08;;;6.00;79.50;;;;;;5112203;28;20044;-87
2022/02/15 03:49:37;;;;;;;8.90;1.30;;;6.00;79.50;;;;;;5104788;28;20047;-89
2022/02/15 03:52:04;;;;;;;10.07;2.08;;;6.00;79.50;;;;;;5111257;28;20126;-88
2022/02/15 03:54:31;;;;;;;7.85;1.50;;;6.00;79.50;;;;;;5111136;28;20059;-88
2022/02/15 03:56:58;;;;;;;8.38;1.77;;;6.00;79.50;;;;;;5110620;28;20048;-88
2022/02/15 03:59:25;;;;;;;11.27;1.75;;;6.00;79.50;;;;;;5094450;28;20047;-87
2022/02/15 04:01:52;;;;;;;10.20;2.17;;;6.00;79.50;;;;;;5094089;28;20050;-87
2022/02/15 04:04:19;;;;;;;11.38;1.77;;;5.90;79.50;;;;;;5110916;28;20390;-88
2022/02/15 04:06:46;;;;;;;7.63;1.90;;;6.00;79.50;;;;;;5092747;28;20047;-87
2022/02/15 04:09:13;;;;;;;9.48;1.55;;;5.90;79.50;;;;;;5111479;28;20044;-87
2022/02/15 04:11:40;;;;;;;6.20;1.60;;;5.90;79.50;;;;;;5092176;28;20063;-87
2022/02/15 04:14:07;;;;;;;6.35;1.65;;;5.90;79.50;;;;;;5112905;27;20048;-88
2022/02/15 04:16:35;;;;;;;5.95;1.55;;;5.90;79.50;;;;;;5091337;28;20058;-88
2022/02/15 04:19:02;;;;;;;7.53;1.60;;;5.90;79.50;;;;;;5110677;28;20046;-87
2022/02/15 04:21:30;;;;;;;8.93;1.77;;;5.90;79.50;;;;;;5110919;28;20056;-88
2022/02/15 04:23:57;;;;;;;6.00;1.50;;;5.90;79.50;;;;;;5109309;28;20425;-87
2022/02/15 04:26:24;;;;;;;8.80;1.77;;;5.90;79.50;;;;;;5093697;28;20086;-87
2022/02/15 04:28:51;;;;;;;9.77;1.88;;;5.90;79.50;;;;;;5093515;28;20051;-87
2022/02/15 04:31:18;;;;;;;9.63;1.67;;;5.80;79.50;;;;;;5110549;28;20047;-88
2022/02/15 04:33:45;;;;;;;7.35;1.60;;;5.80;79.50;;;;;;5111406;28;20055;-90
2022/02/15 04:36:12;;;;;;;8.38;1.48;;;5.80;79.50;;;;;;5092843;28;20046;-89
2022/02/15 04:38:40;;;;;;;10.02;2.15;;;5.80;79.50;;;;;;5110495;28;20407;-88
2022/02/15 04:41:07;;;;;;;8.13;1.95;;;5.80;79.50;;;;;;5094295;28;20046;-87
2022/02/15 04:43:34;;;;;;;8.95;1.83;;;5.80;79.40;;;;;;5110548;28;20048;-87
2022/02/15 04:46:01;;;;;;;6.35;1.40;;;5.70;79.50;;;;;;5109770;28;20075;-87
2022/02/15 04:48:29;;;;;;;5.88;1.10;;;5.70;79.50;;;;;;5110304;28;20050;-88
2022/02/15 04:50:57;;;;;;;9.00;1.77;;;5.70;79.50;;;;;;5092371;28;20040;-86
2022/02/15 04:53:23;;;;;;;10.75;1.83;;;5.70;79.50;;;;;;5111786;28;20043;-88
2022/02/15 04:55:50;;;;;;;10.48;1.67;;;5.70;79.50;;;;;;5091475;28;20101;-87
2022/02/15 04:58:17;;;;;;;9.65;1.75;;;5.70;79.50;;;;;;5090843;28;20429;-88
2022/02/15 05:00:46;;;;;;;7.20;1.70;;;5.60;79.50;;;;;;5107929;28;20505;-88
2022/02/15 05:03:13;;;;;;;8.07;1.60;;;5.60;79.50;;;;;;5110298;28;20048;-88
2022/02/15 05:05:41;;;;;;;7.07;1.58;;;5.60;79.50;;;;;;5110383;28;20043;-88
2022/02/15 05:08:08;;;;;;;7.97;1.38;;;5.60;79.60;;;;;;5094463;28;20051;-87
2022/02/15 05:10:35;;;;;;;11.77;1.83;;;5.60;79.60;;;;;;5091998;28;20118;-88
2022/02/15 05:13:06;;;;;;;10.60;1.95;;;5.60;79.60;;;;;;5092374;28;20050;-88
2022/02/15 05:15:33;;;;;;;9.25;1.50;;;5.60;79.60;;;;;;5109709;28;20044;-87
2022/02/15 05:18:02;;;;;;;10.75;1.90;;;5.50;79.60;;;;;;5092196;28;20059;-88
2022/02/15 05:20:30;;;;;;;10.35;1.75;;;5.50;79.60;;;;;;5111011;28;20055;-88
2022/02/15 05:22:57;;;;;;;9.05;1.58;;;5.50;79.60;;;;;;5091535;28;20052;-87
2022/02/15 05:25:24;;;;;;;11.38;1.60;;;5.50;79.70;;;;;;5110267;28;20048;-87
2022/02/15 05:27:55;;;;;;;12.52;1.98;;;5.50;79.70;;;;;;5112543;28;20517;-89
2022/02/15 05:30:22;;;;;;;10.23;1.73;;;5.50;79.70;;;;;;5112413;28;20451;-88
2022/02/15 05:32:49;;;;;;;13.55;1.90;;;5.50;79.70;;;;;;5098471;28;20055;-88
2022/02/15 05:35:16;;;;;;;6.93;1.55;;;5.50;79.70;;;;;;5116178;28;20478;-87
2022/02/15 05:37:44;;;;;;;11.48;1.63;;;5.50;79.70;;;;;;5094060;28;20062;-87
2022/02/15 05:40:12;;;;;;;6.53;1.63;;;5.50;79.70;;;;;;5112332;28;20054;-89
2022/02/15 05:42:40;;;;;;;11.98;2.17;;;5.50;79.70;;;;;;5115172;27;20055;-88
2022/02/15 05:45:08;;;;;;;11.50;1.70;;;5.50;79.70;;;;;;5111909;28;20471;-87
2022/02/15 05:47:36;;;;;;;10.50;2.00;;;5.50;79.60;;;;;;5113168;28;20054;-88
2022/02/15 05:52:49;;;;;;;12.80;2.15;;;5.40;79.60;;;;;;5112460;28;20058;-87
2022/02/15 05:55:16;;;;;;;8.48;1.67;;;5.40;79.60;;;;;;5111612;28;20043;-87
2022/02/15 05:57:43;;;;;;;8.55;2.03;;;5.40;79.50;;;;;;5097384;28;20048;-87
2022/02/15 06:00:12;;;;;;;9.43;1.75;;;5.40;79.50;;;;;;5108414;28;20044;-89
2022/02/15 06:02:39;;;;;;;11.43;1.70;;;5.40;79.50;;;;;;5094220;28;20088;-89
2022/02/15 06:05:07;;;;;;;8.80;1.98;;;5.40;79.50;;;;;;5097461;28;20047;-89
2022/02/15 06:07:34;;;;;;;10.90;2.10;;;5.40;79.50;;;;;;5111236;28;20039;-89
2022/02/15 06:10:02;;;;;;;11.25;1.90;;;5.40;79.50;;;;;;5111353;28;20056;-88
2022/02/15 06:12:29;;;;;;;5.75;1.30;;;5.30;79.40;;;;;;5110884;28;20043;-88
2022/02/15 06:14:56;;;;;;;8.05;1.70;;;5.30;79.40;;;;;;5129057;27;20060;-88
2022/02/15 06:17:23;;;;;;;13.50;2.28;;;5.30;79.40;;;;;;5114515;28;20051;-87
2022/02/15 06:19:50;;;;;;;7.38;1.65;;;5.30;79.40;;;;;;5093164;28;20067;-87
2022/02/15 06:22:17;;;;;;;11.43;2.00;;;5.30;79.30;;;;;;5092760;28;20485;-87
2022/02/15 06:24:44;;;;;;;7.43;1.38;;;5.20;79.30;;;;;;5111096;28;20044;-87
2022/02/15 06:27:11;;;;;;;8.57;1.67;;;5.20;79.30;;;;;;5126201;27;20532;-87
2022/02/15 06:29:38;;;;;;;7.97;1.70;;;5.20;79.30;;;;;;5113436;28;20047;-87
2022/02/15 06:32:05;;;;;;;8.52;1.65;;;5.20;79.30;;;;;;5113138;28;20520;-88
2022/02/15 06:34:32;;;;;;;9.43;1.83;;;5.20;79.30;;;;;;5087791;28;20059;-87
2022/02/15 06:36:59;;;;;;;7.28;1.48;;;5.20;79.30;;;;;;5109985;28;20051;-88
2022/02/15 06:39:26;;;;;;;12.30;1.60;;;5.10;79.30;;;;;;5115097;27;20138;-89
2022/02/15 06:41:53;;;;;;;8.70;2.20;;;5.10;79.30;;;;;;5095203;28;20062;-90
2022/02/15 06:44:20;;;;;;;13.05;2.25;;;5.00;79.20;;;;;;5096263;28;20048;-87
2022/02/15 06:46:47;;;;;;;7.95;1.83;;;5.00;79.30;;;;;;5095019;28;20047;-87
2022/02/15 06:49:14;;;;;;;13.00;2.10;;;5.00;79.30;;;;;;5126198;27;20066;-90
2022/02/15 06:51:41;;;;;;;8.68;1.42;;;5.00;79.30;;;;;;5111456;28;20039;-85
2022/02/15 06:54:08;;;;;;;6.85;1.55;;;5.00;79.20;;;;;;5112472;27;20039;-85
2022/02/15 06:56:37;;;;;;;8.98;2.00;;;5.00;79.20;;;;;;5113519;27;20058;-84
2022/02/15 06:59:05;;;;;;;7.95;1.92;;;4.90;79.20;;;;;;5113762;28;20532;-85
2022/02/15 07:01:32;;;;;;;8.07;1.55;;;4.90;79.20;;;;;;5111462;28;20051;-85
2022/02/15 07:03:59;;;;;;;8.52;1.67;;;4.90;79.20;;;;;;5111511;28;20048;-85
2022/02/15 07:06:26;;;;;;;9.57;1.55;;;4.90;79.20;;;;;;5110978;27;20066;-84
2022/02/15 07:08:58;;;;;;;11.93;1.80;;;4.90;79.20;;;;;;5109606;28;20040;-84
2022/02/15 07:11:26;;;;;;;7.65;1.77;;;4.90;79.20;;;;;;5111483;28;20451;-85
2022/02/15 07:13:52;;;;;;;11.95;1.88;;;4.80;79.20;;;;;;5109901;28;20051;-86
2022/02/15 07:16:22;;;;;;;11.55;1.80;;;4.80;79.20;;;;;;5111163;28;20047;-86
2022/02/15 07:18:49;;;;;;;6.22;1.35;;;4.80;79.20;;;;;;5110843;28;20048;-85
2022/02/15 07:21:17;;;;;;;14.68;2.20;;;4.70;79.20;;;;;;5092798;28;20043;-85
2022/02/15 07:23:44;;;;;;;7.22;1.80;;;4.80;79.30;;;;;;5114989;27;20052;-85
2022/02/15 07:26:11;;;;;;;11.18;2.03;;;4.70;79.30;;;;;;5112031;28;20047;-85
2022/02/15 07:28:40;;;;;;;7.03;1.75;;;4.70;79.30;;;;;;5110510;27;20055;-85
2022/02/15 07:31:08;;;;;;;8.93;2.08;;;4.70;79.30;;;;;;5109604;28;20049;-85
2022/02/15 07:33:34;;;;;;;16.90;2.38;;;4.70;79.30;;;;;;5110335;28;20109;-85
2022/02/15 07:36:02;;;;;;;11.35;2.75;;;4.70;79.40;;;;;;5110949;28;20065;-85
2022/02/15 07:38:29;;;;;;;14.70;2.05;;;4.70;79.40;;;;;;5111625;28;20055;-84
2022/02/15 07:40:56;;;;;;;10.80;1.92;;;4.60;79.40;;;;;;5111867;28;20043;-84
2022/02/15 07:43:25;;;;;;;8.57;1.95;;;4.60;79.50;;;;;;5110746;28;20044;-85
2022/02/15 07:45:53;;;;;;;10.90;1.95;;;4.70;79.50;;;;;;5110782;28;20050;-84
2022/02/15 07:48:20;;;;;;;10.27;1.95;;;4.70;79.60;;;;;;5109676;28;20047;-84
2022/02/15 07:50:47;;;;;;;11.68;2.17;;;4.60;79.60;;;;;;5110580;28;20056;-84
2022/02/15 07:53:15;;;;;;;15.45;2.28;;;4.60;79.60;;;;;;5112847;28;20532;-84
2022/02/15 07:55:42;;;;;;;11.02;2.58;;;4.60;79.70;;;;;;5110164;28;20052;-84
2022/02/15 07:58:09;;;;;;;9.05;2.10;;;4.60;79.70;;;;;;5110374;28;20050;-83
2022/02/15 08:00:36;;;;;;;9.90;2.35;;;4.60;79.80;;;;;;5110515;28;20055;-84
2022/02/15 08:03:04;;;;;;;11.82;2.30;;;4.60;79.80;;;;;;5095669;28;20406;-84
2022/02/15 08:05:31;;;;;;;10.52;2.22;;;4.60;79.90;;;;;;5111152;28;20051;-84
2022/02/15 08:07:58;;;;;;;12.95;2.42;;;4.60;79.90;;;;;;5111973;28;20055;-84
2022/02/15 08:10:26;;;;;;;13.27;2.47;;;4.70;80.00;;;;;;5108514;28;20052;-84
2022/02/15 08:12:58;;;;;;;13.38;2.45;;;4.70;80.10;;;;;;5110385;28;20047;-85
2022/02/15 08:15:30;;;;;;;11.10;2.20;;;4.70;80.10;;;;;;5092578;28;20138;-85
2022/02/15 08:17:59;;;;;;;8.15;2.45;;;4.70;80.10;;;;;;5109694;28;20162;-85
2022/02/15 08:20:32;;;;;;;11.23;2.60;;;4.70;80.20;;;;;;5111154;28;20052;-85
2022/02/15 08:23:00;;;;;;;8.23;2.30;;;4.80;80.20;;;;;;5112071;28;20044;-85
2022/02/15 08:25:28;;;;;;;11.95;2.50;;;4.70;80.30;;;;;;5109946;28;20044;-85
2022/02/15 08:27:56;;;;;;;11.38;2.60;;;4.80;80.30;;;;;;5110067;28;20124;-85
2022/02/15 08:30:23;;;;;;;7.65;2.40;;;4.80;80.30;;;;;;5091943;28;20052;-84
2022/02/15 08:32:50;;;;;;;11.95;2.90;;;4.80;80.40;;;;;;5093826;28;20040;-84
2022/02/15 08:35:19;;;;;;;12.05;2.63;;;4.90;80.50;;;;;;5108293;28;20044;-84
2022/02/15 08:37:46;;;;;;;11.00;2.92;;;4.90;80.50;;;;;;5107737;28;20067;-84
2022/02/15 08:40:14;;;;;;;7.22;2.17;;;4.90;80.60;;;;;;5109629;28;20054;-84
2022/02/15 08:42:43;;;;;;;12.38;2.70;;;4.90;80.60;;;;;;5108922;28;20051;-84
2022/02/15 08:45:11;;;;;;;17.08;3.42;;;4.90;80.70;;;;;;5110093;28;20519;-84
2022/02/15 08:47:39;;;;;;;11.75;2.80;;;5.00;80.70;;;;;;5109707;28;20044;-85
2022/02/15 08:50:08;;;;;;;15.20;2.90;;;5.00;80.80;;;;;;5106024;28;20112;-85
2022/02/15 08:52:36;;;;;;;13.82;2.75;;;5.00;80.90;;;;;;5109892;28;20847;-85
2022/02/15 08:55:05;;;;;;;14.73;3.22;;;5.10;81.00;;;;;;5109589;28;20047;-84
2022/02/15 08:57:32;;;;;;;17.77;3.20;;;5.20;81.10;;;;;;5109830;28;20414;-84
2022/02/15 08:59:59;;;;;;;17.38;2.60;;;5.20;81.10;;;;;;5112109;28;20044;-84
2022/02/15 09:02:30;;;;;;;17.75;3.38;;;5.30;81.20;;;;;;5115281;28;20058;-86
2022/02/15 09:04:57;;;;;;;15.90;3.03;;;5.30;81.20;;;;;;5115842;28;20425;-87
2022/02/15 09:07:24;;;;;;;13.82;2.72;;;5.30;81.30;;;;;;5112754;28;20063;-89
2022/02/15 09:09:51;;;;;;;18.48;3.78;;;5.40;81.30;;;;;;5113983;28;20054;-88
2022/02/15 09:12:18;;;;;;;18.35;3.00;;;5.40;81.40;;;;;;5114097;28;20043;-87
2022/02/15 09:14:45;;;;;;;15.35;3.92;;;5.50;81.40;;;;;;5113467;28;20044;-88
2022/02/15 09:17:13;;;;;;;13.57;2.83;;;5.50;81.50;;;;;;5115591;28;20048;-87
2022/02/15 09:19:40;;;;;;;16.65;2.85;;;5.60;81.60;;;;;;5107346;28;20059;-87
2022/02/15 09:22:07;;;;;;;12.95;2.85;;;5.70;81.60;;;;;;5112576;28;20481;-88
2022/02/15 09:24:34;;;;;;;13.07;2.75;;;5.70;81.60;;;;;;5128093;27;20050;-87
2022/02/15 09:27:01;;;;;;;12.68;2.22;;;5.70;81.70;;;;;;5112349;28;20516;-87
2022/02/15 09:29:28;;;;;;;13.57;3.10;;;5.80;81.70;;;;;;5114467;28;20048;-87
2022/02/15 09:31:55;;;;;;;11.40;2.70;;;5.90;81.80;;;;;;5115013;28;20044;-87
2022/02/15 09:34:27;;;;;;;14.35;2.78;;;5.90;81.80;;;;;;5113665;28;20062;-87
2022/02/15 09:36:54;;;;;;;17.42;2.70;;;6.00;81.80;;;;;;5095437;28;20042;-88
2022/02/15 09:39:22;;;;;;;15.50;2.95;;;6.00;81.80;;;;;;5095596;28;20052;-87
2022/02/15 09:41:49;;;;;;;8.93;2.70;;;6.10;81.80;;;;;;5094906;28;20040;-88
2022/02/15 09:44:16;;;;;;;17.35;3.28;;;6.20;81.90;;;;;;5092915;28;20051;-87
2022/02/15 09:46:44;;;;;;;17.58;3.00;;;6.30;81.90;;;;;;5113728;28;20073;-88
2022/02/15 09:52:00;;;;;;;15.60;3.10;;;6.50;81.80;;;;;;5113324;28;20132;-88
2022/02/15 09:54:29;;;;;;;22.88;3.58;;;6.60;81.80;;;;;;5114237;28;20043;-88
2022/02/15 09:56:56;;;;;;;16.08;3.53;;;6.70;81.70;;;;;;5113528;28;20052;-87
2022/02/15 09:59:24;;;;;;;19.67;3.67;;;6.90;81.70;;;;;;5114994;28;20405;-87
2022/02/15 10:01:53;;;;;;;13.98;3.22;;;7.00;81.60;;;;;;5112569;28;20550;-87
2022/02/15 10:04:33;;;;;;;15.25;3.28;;;7.10;81.50;;;;;;5112924;28;20054;-87
2022/02/15 10:07:05;;;;;;;15.70;3.40;;;7.40;81.40;;;;;;5111476;28;20054;-87
2022/02/15 10:09:34;;;;;;;17.45;3.70;;;7.50;81.20;;;;;;5093228;28;20051;-87
2022/02/15 10:12:02;;;;;;;20.75;3.65;;;7.60;81.00;;;;;;5113048;28;20044;-87
2022/02/15 10:14:29;;;;;;;20.23;4.18;;;7.80;80.80;;;;;;5113842;28;20062;-87
2022/02/15 10:16:57;;;;;;;15.02;3.40;;;8.00;80.60;;;;;;5108292;28;20051;-87
2022/02/15 10:19:29;;;;;;;17.60;4.30;;;8.10;80.40;;;;;;5112855;28;20051;-87
2022/02/15 10:22:01;;;;;;;22.42;4.40;;;8.30;80.20;;;;;;5112875;28;20070;-87
2022/02/15 10:24:32;;;;;;;16.25;3.33;;;8.40;79.90;;;;;;5112628;28;20044;-87
2022/02/15 10:27:02;;;;;;;19.77;4.72;;;8.50;79.60;;;;;;5112748;28;20035;-88
2022/02/15 10:29:32;;;;;;;21.42;4.25;;;8.70;79.30;;;;;;5113109;28;20061;-87
2022/02/15 10:32:03;;;;;;;13.90;3.45;;;8.90;79.00;;;;;;5114311;28;20051;-87
2022/02/15 10:34:31;;;;;;;16.00;3.78;;;8.90;78.70;;;;;;5112523;28;20044;-87
2022/02/15 10:37:03;;;;;;;12.38;3.72;;;9.10;78.40;;;;;;5112476;28;20057;-88
2022/02/15 10:39:42;;;;;;;16.73;4.00;;;9.20;78.10;;;;;;5094299;28;20059;-87
2022/02/15 10:42:15;;;;;;;12.18;3.67;;;9.40;77.80;;;;;;5094153;28;20047;-86
2022/02/15 10:44:52;;;;;;;13.73;3.90;;;9.40;77.50;;;;;;5111722;28;20093;-87
2022/02/15 10:47:20;;;;;;;;;;;9.50;77.10;;;;;;5092761;28;20513;-86
2022/02/15 10:49:55;;;;;;;18.25;4.25;;;9.60;76.80;;;;;;5111385;28;20369;-86
2022/02/15 10:52:22;;;;;;;18.80;3.55;;;9.70;76.50;;;;;;5112082;28;20047;-86
2022/02/15 10:54:49;;;;;;;14.68;3.60;;;9.80;76.20;;;;;;5093997;28;20050;-86
2022/02/15 10:57:17;;;;;;;15.88;3.45;;;9.90;75.90;;;;;;5111707;28;20043;-87
2022/02/15 10:59:47;;;;;;;12.75;2.80;;;9.90;75.70;;;;;;5093889;28;20070;-87
2022/02/15 11:02:20;;;;;;;15.32;3.15;;;10.00;75.50;;;;;;5113988;28;20048;-86
2022/02/15 11:04:48;;;;;;;20.63;3.30;;;10.10;75.30;;;;;;5112414;28;20155;-86
2022/02/15 11:07:21;;;;;;;9.90;2.78;;;10.20;75.20;;;;;;5111664;28;20043;-84
2022/02/15 11:10:22;;;;;;;13.38;2.92;;;10.30;75.00;;;;;;5111638;28;20050;-86
2022/02/15 11:12:56;;;;;;;12.15;2.80;;;10.40;74.90;;;;;;5111298;28;20523;-85
2022/02/15 11:15:28;;;;;;;13.73;2.53;;;10.50;74.70;;;;;;5111722;28;20055;-86
2022/02/15 11:18:00;;;;;;;18.15;2.75;;;10.50;74.60;;;;;;5095067;28;20437;-85
2022/02/15 11:20:30;;;;;;;16.65;3.03;;;10.60;74.50;;;;;;5112776;28;20055;-85
2022/02/15 11:22:59;;;;;;;16.52;3.08;;;10.70;74.40;;;;;;5112574;28;20051;-85
2022/02/15 11:25:34;;;;;;;13.60;2.70;;;10.80;74.20;;;;;;5109729;28;20100;-85
2022/02/15 11:28:16;;;;;;;14.15;2.60;;;10.80;74.00;;;;;;5111370;28;20047;-85
2022/02/15 11:30:56;;;;;;;14.95;2.80;;;10.90;73.80;;;;;;5110248;28;20043;-85
2022/02/15 11:33:30;;;;;;;13.40;2.35;;;10.90;73.60;;;;;;5111251;28;20521;-86
2022/02/15 11:36:05;;;;;;;10.63;2.08;;;10.90;73.50;;;;;;5111453;28;20051;-85
2022/02/15 11:38:34;;;;;;;15.23;2.17;;;10.90;73.30;;;;;;5111837;28;20052;-85
2022/02/15 11:41:05;;;;;;;16.70;2.30;;;11.00;73.10;;;;;;5110930;28;20051;-85
2022/02/15 11:43:34;;;;;;;11.95;2.53;;;10.90;72.90;;;;;;5111027;28;20039;-85
2022/02/15 11:46:03;;;;;;;13.07;2.38;;;10.90;72.80;;;;;;5111031;28;20058;-85
2022/02/15 11:48:42;;;;;;;12.88;2.50;;;10.90;72.70;;;;;;5110929;28;20054;-85
2022/02/15 11:51:20;;;;;;;14.20;2.47;;;10.90;72.70;;;;;;5111026;28;20047;-85
2022/02/15 11:53:53;;;;;;;16.38;2.28;;;10.90;72.70;;;;;;5092926;28;20048;-86
2022/02/15 11:56:20;;;;;;;15.52;2.50;;;10.90;72.70;;;;;;5108795;28;20132;-85
2022/02/15 11:58:49;;;;;;;12.32;2.38;;;10.90;72.80;;;;;;5108595;28;20409;-86
2022/02/15 12:01:34;;;;;;;12.18;2.20;;;10.90;72.80;;;;;;5110794;28;20048;-87
2022/02/15 12:04:01;;;;;;;14.07;2.40;;;10.90;72.80;;;;;;5110920;28;20036;-86
2022/02/15 12:06:39;;;;;;;11.38;2.38;;;10.80;72.80;;;;;;5110684;28;20055;-86
2022/02/15 12:09:07;;;;;;;14.10;2.28;;;10.80;72.80;;;;;;5110329;28;20048;-86
2022/02/15 12:11:39;;;;;;;13.23;2.30;;;10.80;72.90;;;;;;5110967;28;20054;-86
2022/02/15 12:14:11;;;;;;;14.18;2.30;;;10.80;73.00;;;;;;5111424;28;20044;-86
2022/02/15 12:16:52;;;;;;;9.35;1.92;;;10.70;73.10;;;;;;5110613;28;20052;-86
2022/02/15 12:19:35;;;;;;;13.98;2.10;;;10.70;73.10;;;;;;5110512;28;20054;-86
2022/02/15 12:22:14;;;;;;;17.70;2.58;;;10.70;73.20;;;;;;5110573;28;20050;-86
2022/02/15 12:24:41;;;;;;;8.93;1.88;;;10.70;73.30;;;;;;5110145;28;20054;-85
2022/02/15 12:27:09;;;;;;;7.47;1.70;;;10.70;73.30;;;;;;5110561;28;20413;-86
2022/02/15 12:29:36;;;;;;;15.13;2.10;;;10.60;73.30;;;;;;5110522;28;20047;-85
2022/02/15 12:32:06;;;;;;;10.25;2.17;;;10.60;73.30;;;;;;5112482;28;20390;-86
2022/02/15 12:34:34;;;;;;;11.02;1.67;;;10.60;73.40;;;;;;5109882;28;20058;-85
2022/02/15 12:37:02;;;;;;;7.82;1.67;;;10.60;73.40;;;;;;5113372;28;20046;-83
2022/02/15 12:39:34;;;;;;;11.73;1.80;;;10.60;73.40;;;;;;5113479;27;20052;-84
2022/02/15 12:42:10;;;;;;;12.70;2.05;;;10.60;73.40;;;;;;5115599;27;20039;-83
2022/02/15 12:44:39;;;;;;;9.30;2.03;;;10.50;73.30;;;;;;5114116;28;20074;-83
2022/02/15 12:47:07;;;;;;;6.68;1.50;;;10.50;73.30;;;;;;5115464;28;20047;-83
2022/02/15 12:49:34;;;;;;;19.85;2.85;;;10.50;73.40;;;;;;5113931;28;20055;-83
2022/02/15 12:52:01;;;;;;;17.27;2.35;;;10.40;73.40;;;;;;5113849;28;20051;-83
2022/02/15 12:54:30;;;;;;;10.48;1.95;;;10.40;73.40;;;;;;5113680;28;20101;-84
2022/02/15 12:56:59;;;;;;;9.52;2.05;;;10.40;73.50;;;;;;5114076;28;20040;-84
2022/02/15 12:59:26;;;;;;;12.35;2.10;;;10.30;73.60;;;;;;5114978;28;20059;-84
2022/02/15 13:02:00;;;;;;;12.80;2.20;;;10.40;73.60;;;;;;5114507;28;20059;-84
2022/02/15 13:04:27;;;;;;;;;;;10.30;73.70;;;;;;5114312;28;20044;-83